Airfield :
LOGIN :

Register | Disclaimer

   EN    FR    IT 

 










Legend :    VFR   Marginal VFR   IFR   Intensive IFR   Very Intensive IFR
Visi :
Ceiling :
>= 8 km
>= 3000ft
5 to 8 km
1000 to 3000 ft
1500m to 5 km
500 to 1000 ft
800 to 1500m
200 to 500 ft
< 800m
< 200 ft
Symbols :   Thunderstorms  Fog  Heavy snow  Heavy precipitations  Wind > 20 kt
SIGMETs :     Misc.  Thunderstorms  Icing  Turbulence  Mountain Waves  Volcanic Ashes






- Airport Elevation : 529 ft
- IATA code : CHR


LFLX - Chateauroux

CURRENT METAR :
  • 241130Z AUTO VRB01KT CAVOK 12/08 Q1022 NOSIG

EXPIRED METARs :
  • 241100Z AUTO VRB01KT CAVOK 11/07 Q1022 NOSIG
  • 241030Z AUTO 11002KT CAVOK 09/06 Q1022 NOSIG
  • 241000Z AUTO VRB02KT CAVOK 07/05 Q1022 NOSIG
  • 240930Z AUTO 07003KT 8000 NSC 04/03 Q1022 NOSIG
  • 240900Z AUTO 06003KT 8000 NSC 04/02 Q1022 NOSIG

TAF TAF LFLX
Valid from the 24 at 12:00 until the 25 at 18:00 UTC


241100Z 2412/2518 09005KT 8000 NSC
BECMG 2418/2421 0800 FG BKN003
TEMPO 2421/2512 0250 VV///
BECMG 2512/2514 6000 NSW NSC
TEMPO 2512/2518 4000 BR BKN005



MET'MAP, your aeronautical weather chart ! - Copyright ORBIFLY December 2007 - Disclaimer

ORBIFLY MET'MAP TEAM :

Programming & Development : Alexandra Zaïnal
Concept & original design : Baudouin d'Aumeries
Assistance for programming : Marc-Olivier Méhu
Technical & hardware support : Manuel Goepfert

Contact : metmap@orbifly.com




SOURCES & CREDITS :

   NOAA